createdAt,value
2022-07-26T00:01:38.907Z,1.60
2022-07-26T00:04:06.095Z,1.48
2022-07-26T00:06:33.239Z,1.27
2022-07-26T00:09:00.041Z,1.40
2022-07-26T00:11:30.374Z,1.65
2022-07-26T00:13:57.439Z,1.23
2022-07-26T00:16:27.316Z,1.20
2022-07-26T00:18:54.281Z,1.13
2022-07-26T00:21:21.308Z,1.67
2022-07-26T00:23:51.623Z,1.20
2022-07-26T00:26:18.517Z,1.40
2022-07-26T00:28:45.594Z,1.33
2022-07-26T00:31:12.816Z,1.20
2022-07-26T00:33:40.254Z,1.30
2022-07-26T00:36:07.529Z,1.50
2022-07-26T00:38:34.470Z,1.30
2022-07-26T00:41:02.305Z,1.17
2022-07-26T00:43:35.557Z,1.20
2022-07-26T00:46:02.524Z,1.33
2022-07-26T00:48:29.580Z,1.33
2022-07-26T00:50:56.349Z,1.75
2022-07-26T00:53:23.352Z,1.55
2022-07-26T00:55:58.378Z,1.65
2022-07-26T00:58:25.425Z,1.70
2022-07-26T01:00:52.288Z,2.10
2022-07-26T01:03:21.554Z,1.50
2022-07-26T01:05:54.241Z,1.50
2022-07-26T01:08:28.167Z,1.40
2022-07-26T01:10:55.123Z,1.48
2022-07-26T01:13:22.475Z,1.70
2022-07-26T01:15:49.483Z,1.63
2022-07-26T01:18:16.329Z,1.63
2022-07-26T01:20:44.096Z,1.90
2022-07-26T01:23:11.194Z,1.83
2022-07-26T01:25:43.176Z,1.42
2022-07-26T01:28:10.675Z,1.58
2022-07-26T01:30:44.996Z,1.58
2022-07-26T01:33:14.192Z,1.90
2022-07-26T01:35:41.156Z,2.15
2022-07-26T01:38:07.990Z,2.15
2022-07-26T01:40:34.795Z,1.73
2022-07-26T01:43:01.672Z,1.90
2022-07-26T01:45:28.676Z,1.77
2022-07-26T01:47:55.539Z,1.80
2022-07-26T01:50:25.998Z,1.73
2022-07-26T01:52:52.661Z,1.20
2022-07-26T01:55:19.476Z,1.58
2022-07-26T01:57:46.542Z,1.75
2022-07-26T02:00:13.613Z,1.50
2022-07-26T02:02:40.424Z,1.70
2022-07-26T02:05:07.988Z,1.40
2022-07-26T02:07:42.887Z,2.00
2022-07-26T02:10:12.730Z,1.45
2022-07-26T02:12:41.596Z,2.25
2022-07-26T02:15:09.293Z,1.52
2022-07-26T02:17:39.489Z,1.70
2022-07-26T02:20:07.116Z,1.55
2022-07-26T02:22:34.832Z,1.75
2022-07-26T02:25:04.978Z,1.83
2022-07-26T02:27:32.116Z,1.98
2022-07-26T02:29:58.948Z,2.05
2022-07-26T02:32:25.835Z,1.65
2022-07-26T02:34:52.616Z,1.80
2022-07-26T02:37:24.336Z,1.98
2022-07-26T02:39:51.137Z,1.60
2022-07-26T02:42:17.969Z,2.00
2022-07-26T02:44:45.037Z,1.50
2022-07-26T02:47:13.105Z,2.33
2022-07-26T02:49:47.429Z,1.92
2022-07-26T02:52:14.393Z,2.17
2022-07-26T02:54:41.352Z,2.30
2022-07-26T02:57:08.021Z,1.98
2022-07-26T02:59:34.937Z,2.10
2022-07-26T03:02:09.790Z,2.47
2022-07-26T03:04:36.647Z,2.10
2022-07-26T03:07:05.836Z,2.38
2022-07-26T03:09:37.333Z,2.20
2022-07-26T03:12:04.996Z,2.38
2022-07-26T03:14:37.249Z,1.90
2022-07-26T03:17:04.064Z,2.10
2022-07-26T03:19:30.866Z,2.00
2022-07-26T03:21:57.824Z,2.10
2022-07-26T03:24:34.581Z,2.47
2022-07-26T03:27:01.484Z,2.22
2022-07-26T03:29:28.409Z,2.08
2022-07-26T03:32:01.941Z,1.95
2022-07-26T03:34:37.218Z,2.38
2022-07-26T03:37:04.157Z,2.08
2022-07-26T03:39:33.344Z,2.30
2022-07-26T03:42:01.332Z,1.90
2022-07-26T03:44:28.036Z,2.58
2022-07-26T03:46:54.813Z,2.38
2022-07-26T03:49:21.627Z,2.17
2022-07-26T03:51:48.512Z,2.22
2022-07-26T03:54:17.325Z,2.15
2022-07-26T03:56:45.466Z,2.38
2022-07-26T03:59:14.460Z,2.58
2022-07-26T04:01:45.665Z,1.83
2022-07-26T04:04:25.161Z,1.92
2022-07-26T04:06:52.452Z,1.88
2022-07-26T04:09:19.838Z,1.90
2022-07-26T04:11:54.129Z,1.73
2022-07-26T04:14:21.205Z,2.33
2022-07-26T04:16:48.183Z,2.00
2022-07-26T04:19:15.077Z,2.50
2022-07-26T04:21:42.100Z,2.10
2022-07-26T04:24:11.628Z,2.08
2022-07-26T04:26:38.777Z,2.00
2022-07-26T04:29:05.588Z,2.47
2022-07-26T04:31:36.092Z,1.80
2022-07-26T04:34:03.407Z,1.73
2022-07-26T04:36:30.257Z,2.28
2022-07-26T04:38:58.236Z,2.47
2022-07-26T04:41:25.934Z,2.20
2022-07-26T04:43:52.677Z,2.35
2022-07-26T04:46:25.139Z,2.35
2022-07-26T04:48:52.142Z,2.50
2022-07-26T04:51:19.527Z,2.25
2022-07-26T04:53:54.497Z,2.25
2022-07-26T04:56:31.107Z,2.55
2022-07-26T04:58:57.993Z,3.25
2022-07-26T05:01:24.787Z,2.55
2022-07-26T05:03:51.674Z,3.08
2022-07-26T05:06:18.489Z,2.97
2022-07-26T05:08:47.504Z,2.88
2022-07-26T05:11:14.316Z,2.80
2022-07-26T05:13:41.166Z,2.67
2022-07-26T05:16:11.677Z,3.35
2022-07-26T05:18:49.285Z,2.70
2022-07-26T05:21:20.809Z,3.60
2022-07-26T05:23:47.819Z,2.78
2022-07-26T05:26:14.733Z,3.05
2022-07-26T05:28:43.464Z,3.13
2022-07-26T05:31:10.450Z,3.13
2022-07-26T05:33:37.327Z,3.33
2022-07-26T05:36:12.044Z,3.42
2022-07-26T05:38:38.923Z,3.40
2022-07-26T05:41:06.024Z,2.95
2022-07-26T05:43:41.614Z,3.78
2022-07-26T05:46:09.961Z,3.38
2022-07-26T05:48:42.907Z,3.22
2022-07-26T05:51:10.221Z,4.32
2022-07-26T05:53:37.542Z,3.63
2022-07-26T05:56:04.767Z,3.38
2022-07-26T05:58:38.007Z,3.70
2022-07-26T06:01:05.112Z,3.75
2022-07-26T06:03:32.320Z,3.80
2022-07-26T06:05:59.285Z,3.65
2022-07-26T06:08:26.473Z,4.20
2022-07-26T06:10:53.668Z,3.60
2022-07-26T06:13:20.652Z,3.78
2022-07-26T06:15:47.638Z,3.65
2022-07-26T06:18:14.685Z,3.97
2022-07-26T06:20:46.230Z,4.22
2022-07-26T06:23:13.581Z,4.38
2022-07-26T06:25:41.984Z,4.18
2022-07-26T06:28:09.445Z,5.20
2022-07-26T06:30:39.483Z,4.38
2022-07-26T06:33:07.500Z,4.55
2022-07-26T06:35:38.472Z,4.95
2022-07-26T06:38:06.537Z,4.82
2022-07-26T06:40:33.208Z,5.05
2022-07-26T06:43:04.325Z,5.45
2022-07-26T06:45:32.961Z,5.18
2022-07-26T06:48:09.621Z,5.95
2022-07-26T06:50:36.417Z,5.20
2022-07-26T06:53:10.877Z,5.75
2022-07-26T06:55:37.762Z,5.05
2022-07-26T06:58:05.318Z,6.18
2022-07-26T07:00:40.177Z,5.10
2022-07-26T07:03:16.995Z,5.07
2022-07-26T07:05:49.306Z,6.00
2022-07-26T07:08:17.682Z,5.57
2022-07-26T07:10:44.810Z,5.68
2022-07-26T07:13:11.624Z,5.55
2022-07-26T07:15:38.528Z,5.25
2022-07-26T07:18:05.280Z,4.90
2022-07-26T07:20:32.088Z,4.70
2022-07-26T07:22:58.837Z,4.40
2022-07-26T07:25:30.868Z,4.22
2022-07-26T07:27:58.927Z,4.40
2022-07-26T07:30:26.169Z,4.53
2022-07-26T07:32:55.686Z,4.20
2022-07-26T07:35:31.625Z,4.38
2022-07-26T07:38:00.377Z,4.95
2022-07-26T07:40:35.149Z,5.60
2022-07-26T07:43:02.109Z,5.15
2022-07-26T07:45:28.867Z,4.82
2022-07-26T07:47:55.854Z,5.03
2022-07-26T07:50:22.956Z,4.85
2022-07-26T07:52:55.584Z,5.70
2022-07-26T07:55:46.009Z,5.57
2022-07-26T07:58:19.576Z,5.13
2022-07-26T08:00:46.861Z,6.20
2022-07-26T08:03:17.890Z,5.47
2022-07-26T08:05:47.365Z,5.05
2022-07-26T08:08:17.184Z,6.32
2022-07-26T08:10:52.430Z,6.13
2022-07-26T08:13:24.387Z,7.20
2022-07-26T08:15:52.112Z,6.18
2022-07-26T08:18:21.673Z,7.32
2022-07-26T08:20:49.793Z,7.05
2022-07-26T08:23:17.085Z,6.32
2022-07-26T08:25:57.825Z,6.97
2022-07-26T08:28:46.209Z,6.80
2022-07-26T08:31:13.660Z,6.70
2022-07-26T08:33:41.149Z,6.65
2022-07-26T08:36:17.847Z,6.65
2022-07-26T08:38:47.091Z,7.75
2022-07-26T08:41:16.428Z,7.07
2022-07-26T08:43:51.988Z,7.88
2022-07-26T08:46:25.223Z,7.75
2022-07-26T08:48:52.495Z,7.35
2022-07-26T08:51:22.995Z,7.65
2022-07-26T08:53:50.501Z,7.65
2022-07-26T08:56:17.321Z,7.20
2022-07-26T08:58:47.159Z,7.57
2022-07-26T09:01:14.283Z,7.22
2022-07-26T09:03:42.507Z,6.80
2022-07-26T09:06:17.518Z,7.68
2022-07-26T09:11:25.403Z,7.65
2022-07-26T09:13:53.496Z,7.60
2022-07-26T09:16:23.150Z,7.63
2022-07-26T09:18:50.181Z,7.85
2022-07-26T09:21:27.365Z,7.45
2022-07-26T09:23:55.364Z,7.57
2022-07-26T09:26:23.604Z,7.22
2022-07-26T09:29:04.271Z,7.03
2022-07-26T09:31:31.316Z,7.32
2022-07-26T09:33:59.862Z,6.70
2022-07-26T09:36:49.454Z,6.97
2022-07-26T09:39:16.241Z,6.32
2022-07-26T09:41:43.244Z,5.93
2022-07-26T09:44:23.686Z,6.35
2022-07-26T09:46:54.641Z,6.90
2022-07-26T09:49:30.910Z,6.47
2022-07-26T09:52:14.573Z,6.28
2022-07-26T09:54:41.693Z,5.75
2022-07-26T09:57:08.420Z,5.35
2022-07-26T09:59:41.914Z,4.97
2022-07-26T10:02:10.125Z,5.65
2022-07-26T10:04:37.058Z,4.45
2022-07-26T10:07:03.966Z,5.18
2022-07-26T10:09:32.813Z,4.88
2022-07-26T10:12:05.503Z,4.78
2022-07-26T10:14:32.361Z,5.22
2022-07-26T10:16:59.666Z,4.65
2022-07-26T10:19:45.303Z,4.68
2022-07-26T10:22:33.871Z,4.90
2022-07-26T10:25:19.887Z,4.32
2022-07-26T10:27:47.042Z,4.35
2022-07-26T10:30:23.007Z,4.78
2022-07-26T10:33:13.168Z,4.57
2022-07-26T10:35:44.622Z,4.68
2022-07-26T10:38:31.868Z,4.38
2022-07-26T10:41:07.856Z,3.85
2022-07-26T10:43:42.760Z,4.43
2022-07-26T10:46:15.375Z,4.68
2022-07-26T10:48:55.656Z,4.35
2022-07-26T10:51:26.905Z,4.50
2022-07-26T10:54:04.459Z,4.13
2022-07-26T10:56:33.769Z,4.53
2022-07-26T10:59:02.912Z,4.57
2022-07-26T11:01:35.171Z,3.70
2022-07-26T11:04:02.645Z,3.78
2022-07-26T11:06:32.473Z,3.28
2022-07-26T11:09:12.571Z,4.13
2022-07-26T11:11:39.466Z,3.55
2022-07-26T11:14:15.458Z,3.90
2022-07-26T11:16:47.155Z,4.15
2022-07-26T11:19:17.034Z,3.55
2022-07-26T11:21:44.907Z,3.75
2022-07-26T11:24:13.182Z,3.05
2022-07-26T11:26:44.114Z,3.05
2022-07-26T11:29:14.244Z,3.22
2022-07-26T11:31:52.049Z,3.55
2022-07-26T11:34:29.147Z,2.42
2022-07-26T11:36:57.512Z,3.13
2022-07-26T11:39:25.217Z,3.55
2022-07-26T11:42:01.127Z,3.05
2022-07-26T11:44:28.287Z,3.42
2022-07-26T11:46:56.010Z,3.42
2022-07-26T11:50:00.818Z,4.25
2022-07-26T11:52:25.363Z,4.38
2022-07-26T11:54:59.348Z,3.83
2022-07-26T11:57:30.898Z,4.40
2022-07-26T11:59:58.641Z,4.50
2022-07-26T12:02:25.834Z,4.05
2022-07-26T12:05:12.386Z,4.07
2022-07-26T12:07:39.582Z,4.43
2022-07-26T12:10:15.748Z,4.72
2022-07-26T12:12:48.416Z,4.70
2022-07-26T12:15:15.714Z,4.40
2022-07-26T12:17:58.958Z,4.30
2022-07-26T12:20:28.032Z,3.83
2022-07-26T12:22:55.892Z,3.88
2022-07-26T12:25:27.382Z,3.80
2022-07-26T12:27:55.502Z,3.80
2022-07-26T12:30:22.620Z,4.22
2022-07-26T12:32:51.497Z,4.15
2022-07-26T12:35:27.770Z,4.03
2022-07-26T12:37:55.498Z,4.50
2022-07-26T12:40:23.582Z,3.42
2022-07-26T12:42:50.310Z,3.85
2022-07-26T12:45:22.673Z,3.50
2022-07-26T12:48:00.265Z,3.13
2022-07-26T12:50:28.656Z,2.97
2022-07-26T12:53:03.548Z,2.70
2022-07-26T12:55:30.728Z,2.58
2022-07-26T12:58:05.174Z,2.70
2022-07-26T13:00:48.564Z,2.35
2022-07-26T13:03:15.961Z,2.90
2022-07-26T13:05:42.690Z,2.90
2022-07-26T13:08:13.803Z,3.05
2022-07-26T13:10:41.458Z,2.78
2022-07-26T13:13:08.380Z,2.70
2022-07-26T13:15:36.767Z,2.97
2022-07-26T13:18:05.884Z,2.72
2022-07-26T13:20:38.704Z,3.20
2022-07-26T13:23:17.906Z,3.30
2022-07-26T13:25:58.775Z,2.97
2022-07-26T13:28:26.605Z,3.53
2022-07-26T13:30:53.728Z,3.30
2022-07-26T13:33:20.523Z,3.80
2022-07-26T13:35:50.347Z,3.70
2022-07-26T13:38:19.486Z,3.40
2022-07-26T13:40:46.154Z,3.13
2022-07-26T13:43:19.328Z,2.80
2022-07-26T13:45:46.260Z,2.92
2022-07-26T13:48:13.185Z,3.58
2022-07-26T13:50:39.932Z,3.10
2022-07-26T13:53:16.692Z,3.42
2022-07-26T13:55:43.751Z,2.70
2022-07-26T13:58:10.665Z,3.03
2022-07-26T14:00:37.942Z,3.10
2022-07-26T14:03:04.820Z,2.42
2022-07-26T14:05:36.466Z,1.98
2022-07-26T14:08:03.343Z,2.20
2022-07-26T14:10:30.260Z,2.35
2022-07-26T14:12:57.525Z,2.00
2022-07-26T14:15:29.584Z,2.00
2022-07-26T14:17:59.714Z,2.40
2022-07-26T14:20:27.877Z,2.35
2022-07-26T14:23:01.635Z,2.05
2022-07-26T14:25:34.496Z,2.38
2022-07-26T14:28:01.304Z,2.13
2022-07-26T14:30:28.199Z,2.25
2022-07-26T14:32:54.999Z,1.92
2022-07-26T14:35:21.793Z,2.00
2022-07-26T14:37:48.644Z,2.47
2022-07-26T14:40:17.726Z,2.40
2022-07-26T14:42:45.133Z,2.70
2022-07-26T14:45:12.505Z,2.53
2022-07-26T14:47:49.195Z,2.42
2022-07-26T14:50:22.776Z,1.90
2022-07-26T14:52:49.882Z,1.85
2022-07-26T14:58:01.257Z,1.80
2022-07-26T15:00:38.060Z,1.50
2022-07-26T15:03:04.865Z,1.55
2022-07-26T15:05:31.864Z,1.42
2022-07-26T15:08:02.753Z,1.20
2022-07-26T15:10:32.549Z,1.10
2022-07-26T15:13:00.356Z,1.20
2022-07-26T15:15:27.722Z,1.15
2022-07-26T15:17:54.802Z,1.48
2022-07-26T15:20:23.016Z,1.60
2022-07-26T15:22:55.838Z,1.90
2022-07-26T15:25:32.545Z,1.38
2022-07-26T15:28:04.172Z,1.40
2022-07-26T15:30:31.264Z,1.45
2022-07-26T15:33:04.603Z,1.58
2022-07-26T15:35:32.600Z,1.70
2022-07-26T15:38:01.460Z,1.40
2022-07-26T15:40:28.458Z,1.30
2022-07-26T15:42:55.316Z,1.42
2022-07-26T15:45:23.209Z,1.75
2022-07-26T15:47:56.036Z,1.73
2022-07-26T15:50:26.230Z,1.55
2022-07-26T15:52:58.925Z,1.80
2022-07-26T15:55:25.842Z,1.45
2022-07-26T15:57:53.392Z,1.58
2022-07-26T16:00:20.551Z,1.38
2022-07-26T16:02:53.907Z,1.55
2022-07-26T16:05:20.798Z,1.58
2022-07-26T16:07:54.169Z,1.40
2022-07-26T16:10:20.993Z,1.33
2022-07-26T16:12:53.037Z,1.67
2022-07-26T16:15:19.884Z,1.40
2022-07-26T16:17:46.717Z,1.60
2022-07-26T16:20:13.552Z,1.35
2022-07-26T16:22:40.917Z,1.48
2022-07-26T16:25:08.634Z,1.30
2022-07-26T16:27:44.785Z,1.10
2022-07-26T16:30:13.282Z,1.33
2022-07-26T16:32:40.804Z,1.38
2022-07-26T16:35:08.532Z,1.48
2022-07-26T16:37:41.312Z,1.70
2022-07-26T16:40:17.956Z,1.38
2022-07-26T16:42:44.888Z,1.05
2022-07-26T16:45:11.684Z,1.30
2022-07-26T16:47:38.453Z,1.38
2022-07-26T16:50:05.728Z,1.20
2022-07-26T16:52:33.273Z,1.50
2022-07-26T16:55:00.407Z,1.20
2022-07-26T16:57:39.986Z,0.90
2022-07-26T17:00:09.064Z,0.80
2022-07-26T17:02:36.208Z,1.17
2022-07-26T17:05:03.871Z,0.80
2022-07-26T17:07:38.272Z,0.90
2022-07-26T17:10:05.494Z,0.95
2022-07-26T17:12:32.921Z,1.00
2022-07-26T17:15:05.974Z,1.33
2022-07-26T17:17:32.892Z,1.00
2022-07-26T17:19:59.681Z,0.88
2022-07-26T17:22:26.549Z,1.00
2022-07-26T17:24:53.503Z,1.00
2022-07-26T17:27:21.999Z,1.10
2022-07-26T17:29:52.946Z,0.80
2022-07-26T17:32:26.324Z,1.13
2022-07-26T17:34:53.211Z,0.90
2022-07-26T17:37:19.958Z,1.13
2022-07-26T17:39:52.235Z,1.00
2022-07-26T17:42:20.601Z,1.17
2022-07-26T17:44:47.420Z,1.13
2022-07-26T17:47:29.430Z,1.35
2022-07-26T17:52:53.621Z,1.35
2022-07-26T17:55:26.342Z,1.15
2022-07-26T17:57:53.777Z,1.10
2022-07-26T18:00:21.600Z,1.10
2022-07-26T18:02:48.459Z,1.20
2022-07-26T18:05:15.652Z,1.20
2022-07-26T18:07:42.612Z,1.55
2022-07-26T18:10:11.067Z,1.55
2022-07-26T18:12:38.648Z,1.50
2022-07-26T18:15:08.650Z,1.50
2022-07-26T18:17:35.514Z,1.30
2022-07-26T18:20:02.457Z,1.40
2022-07-26T18:22:29.253Z,1.30
2022-07-26T18:24:56.136Z,1.30
2022-07-26T18:27:23.433Z,1.30
2022-07-26T18:29:50.335Z,1.20
2022-07-26T18:32:19.177Z,1.30
2022-07-26T18:34:52.669Z,1.63
2022-07-26T18:37:22.397Z,1.45
2022-07-26T18:39:54.073Z,1.45
2022-07-26T18:42:24.072Z,1.67
2022-07-26T18:44:50.961Z,1.80
2022-07-26T18:47:17.917Z,1.75
2022-07-26T18:49:51.577Z,1.50
2022-07-26T18:52:32.205Z,1.48
2022-07-26T18:55:06.814Z,1.20
2022-07-26T18:57:42.029Z,1.52
2022-07-26T19:00:10.547Z,1.20
2022-07-26T19:02:41.499Z,1.20
2022-07-26T19:05:09.860Z,1.17
2022-07-26T19:07:38.107Z,1.50
2022-07-26T19:10:06.053Z,0.98
2022-07-26T19:12:33.266Z,1.00
2022-07-26T19:15:04.101Z,1.00
2022-07-26T19:17:38.591Z,1.38
2022-07-26T19:20:06.742Z,1.40
2022-07-26T19:22:37.125Z,1.25
2022-07-26T19:25:05.190Z,1.30
2022-07-26T19:27:32.025Z,1.50
2022-07-26T19:29:58.895Z,1.45
2022-07-26T19:32:33.124Z,2.00
2022-07-26T19:35:02.505Z,1.00
2022-07-26T19:37:29.329Z,1.63
2022-07-26T19:39:59.014Z,1.55
2022-07-26T19:42:25.829Z,1.40
2022-07-26T19:44:52.605Z,1.33
2022-07-26T19:47:19.770Z,1.48
2022-07-26T19:49:46.509Z,1.40
2022-07-26T19:52:13.396Z,1.40
2022-07-26T19:54:40.455Z,2.10
2022-07-26T19:57:11.224Z,1.48
2022-07-26T19:59:43.049Z,2.05
2022-07-26T20:02:18.700Z,1.30
2022-07-26T20:04:46.327Z,1.98
2022-07-26T20:07:20.605Z,1.40
2022-07-26T20:09:47.754Z,1.42
2022-07-26T20:12:14.817Z,1.90
2022-07-26T20:14:41.955Z,1.35
2022-07-26T20:17:11.999Z,1.48
2022-07-26T20:19:40.160Z,1.50
2022-07-26T20:22:09.867Z,1.50
2022-07-26T20:24:38.147Z,1.80
2022-07-26T20:27:07.416Z,1.98
2022-07-26T20:29:34.226Z,1.48
2022-07-26T20:32:01.304Z,1.90
2022-07-26T20:34:28.245Z,1.60
2022-07-26T20:37:01.265Z,1.90
2022-07-26T20:39:38.195Z,1.92
2022-07-26T20:42:06.524Z,1.75
2022-07-26T20:44:43.841Z,1.60
2022-07-26T20:47:10.762Z,2.03
2022-07-26T20:49:45.717Z,1.60
2022-07-26T20:52:21.192Z,1.65
2022-07-26T20:54:52.728Z,1.60
2022-07-26T20:57:22.289Z,2.00
2022-07-26T20:59:49.128Z,1.67
2022-07-26T21:02:16.179Z,1.88
2022-07-26T21:04:45.746Z,1.67
2022-07-26T21:07:14.020Z,2.08
2022-07-26T21:09:40.851Z,1.60
2022-07-26T21:12:08.550Z,1.65
2022-07-26T21:14:35.437Z,1.77
2022-07-26T21:17:02.345Z,2.15
2022-07-26T21:19:29.225Z,1.77
2022-07-26T21:22:01.650Z,1.80
2022-07-26T21:24:28.540Z,2.03
2022-07-26T21:27:05.897Z,1.67
2022-07-26T21:29:39.255Z,1.90
2022-07-26T21:32:06.560Z,1.90
2022-07-26T21:34:36.498Z,1.25
2022-07-26T21:37:05.321Z,1.90
2022-07-26T21:39:32.097Z,1.88
2022-07-26T21:42:04.771Z,2.55
2022-07-26T21:44:39.656Z,2.00
2022-07-26T21:47:06.613Z,2.08
2022-07-26T21:49:33.587Z,2.03
2022-07-26T21:52:00.470Z,1.95
2022-07-26T21:54:27.463Z,2.15
2022-07-26T21:56:54.234Z,2.00
2022-07-26T21:59:21.088Z,1.75
2022-07-26T22:01:48.391Z,2.38
2022-07-26T22:04:17.097Z,1.70
2022-07-26T22:06:44.293Z,1.53
2022-07-26T22:09:11.470Z,1.65
2022-07-26T22:11:46.707Z,2.08
2022-07-26T22:14:13.628Z,1.50
2022-07-26T22:16:47.416Z,1.40
2022-07-26T22:19:14.907Z,1.85
2022-07-26T22:21:41.820Z,1.58
2022-07-26T22:24:08.720Z,1.52
2022-07-26T22:26:36.058Z,1.90
2022-07-26T22:29:02.822Z,2.00
2022-07-26T22:31:29.672Z,1.42
2022-07-26T22:33:56.471Z,2.25
2022-07-26T22:36:24.273Z,1.80
2022-07-26T22:38:51.226Z,1.90
2022-07-26T22:41:18.053Z,1.50
2022-07-26T22:43:45.085Z,1.85
2022-07-26T22:46:11.933Z,1.52
2022-07-26T22:48:39.910Z,1.85
2022-07-26T22:51:08.863Z,1.70
2022-07-26T22:53:35.624Z,1.70
2022-07-26T22:56:04.696Z,1.65
2022-07-26T22:58:31.736Z,1.42
2022-07-26T23:00:58.460Z,2.28
2022-07-26T23:03:25.437Z,1.30
2022-07-26T23:05:54.825Z,1.73
2022-07-26T23:08:47.032Z,1.77
2022-07-26T23:11:08.113Z,1.88
2022-07-26T23:13:34.972Z,1.48
2022-07-26T23:16:02.205Z,1.63
2022-07-26T23:18:30.132Z,1.60
2022-07-26T23:20:56.972Z,1.80
2022-07-26T23:23:29.320Z,1.88
2022-07-26T23:25:57.214Z,1.55
2022-07-26T23:28:35.914Z,1.95
2022-07-26T23:31:13.053Z,1.48
2022-07-26T23:33:52.017Z,1.75
2022-07-26T23:36:21.754Z,1.65
2022-07-26T23:38:48.468Z,1.70
2022-07-26T23:41:15.165Z,1.88
2022-07-26T23:43:41.944Z,1.65
2022-07-26T23:46:08.573Z,1.42
2022-07-26T23:48:35.581Z,1.40
2022-07-26T23:51:02.274Z,1.50
2022-07-26T23:53:28.919Z,1.65
2022-07-26T23:55:55.814Z,1.50
2022-07-26T23:58:22.646Z,1.70
